sensor_id;sensor_type;location;lat;lon;timestamp;P1;durP1;ratioP1;P2;durP2;ratioP2
84891;SDS011;75154;42.072;21.394;2024-02-15T00:00:09;10.15;;;7.53;;
84891;SDS011;75154;42.072;21.394;2024-02-15T00:02:36;12.60;;;8.10;;
84891;SDS011;75154;42.072;21.394;2024-02-15T00:05:02;11.50;;;8.35;;
84891;SDS011;75154;42.072;21.394;2024-02-15T00:07:28;14.30;;;7.45;;
84891;SDS011;75154;42.072;21.394;2024-02-15T00:09:54;12.48;;;8.43;;
84891;SDS011;75154;42.072;21.394;2024-02-15T00:12:20;12.52;;;8.20;;
84891;SDS011;75154;42.072;21.394;2024-02-15T00:14:46;9.52;;;7.13;;
84891;SDS011;75154;42.072;21.394;2024-02-15T00:17:13;11.40;;;8.32;;
84891;SDS011;75154;42.072;21.394;2024-02-15T00:19:39;11.70;;;7.72;;
84891;SDS011;75154;42.072;21.394;2024-02-15T00:22:06;10.80;;;7.43;;
84891;SDS011;75154;42.072;21.394;2024-02-15T00:24:32;13.40;;;7.68;;
84891;SDS011;75154;42.072;21.394;2024-02-15T00:26:58;13.40;;;9.25;;
84891;SDS011;75154;42.072;21.394;2024-02-15T00:29:24;16.40;;;8.73;;
84891;SDS011;75154;42.072;21.394;2024-02-15T00:31:53;14.45;;;8.98;;
84891;SDS011;75154;42.072;21.394;2024-02-15T00:34:20;13.93;;;9.70;;
84891;SDS011;75154;42.072;21.394;2024-02-15T00:36:46;13.68;;;8.32;;
84891;SDS011;75154;42.072;21.394;2024-02-15T00:39:12;14.70;;;9.18;;
84891;SDS011;75154;42.072;21.394;2024-02-15T00:41:39;13.27;;;8.48;;
84891;SDS011;75154;42.072;21.394;2024-02-15T00:44:09;12.82;;;9.23;;
84891;SDS011;75154;42.072;21.394;2024-02-15T00:46:35;14.48;;;9.95;;
84891;SDS011;75154;42.072;21.394;2024-02-15T00:49:02;14.18;;;9.65;;
84891;SDS011;75154;42.072;21.394;2024-02-15T00:51:31;14.02;;;7.97;;
84891;SDS011;75154;42.072;21.394;2024-02-15T00:53:57;13.75;;;9.52;;
84891;SDS011;75154;42.072;21.394;2024-02-15T00:56:23;13.20;;;8.93;;
84891;SDS011;75154;42.072;21.394;2024-02-15T00:58:49;14.70;;;9.68;;
84891;SDS011;75154;42.072;21.394;2024-02-15T01:01:15;13.25;;;9.15;;
84891;SDS011;75154;42.072;21.394;2024-02-15T01:03:41;14.68;;;9.90;;
84891;SDS011;75154;42.072;21.394;2024-02-15T01:06:08;12.77;;;8.98;;
84891;SDS011;75154;42.072;21.394;2024-02-15T01:08:34;15.70;;;9.05;;
84891;SDS011;75154;42.072;21.394;2024-02-15T01:11:01;13.23;;;8.90;;
84891;SDS011;75154;42.072;21.394;2024-02-15T01:13:27;12.73;;;8.88;;
84891;SDS011;75154;42.072;21.394;2024-02-15T01:15:53;13.25;;;8.48;;
84891;SDS011;75154;42.072;21.394;2024-02-15T01:18:20;14.95;;;9.25;;
84891;SDS011;75154;42.072;21.394;2024-02-15T01:20:46;14.20;;;9.85;;
84891;SDS011;75154;42.072;21.394;2024-02-15T01:23:12;15.63;;;9.65;;
84891;SDS011;75154;42.072;21.394;2024-02-15T01:25:38;15.60;;;10.05;;
84891;SDS011;75154;42.072;21.394;2024-02-15T01:28:05;16.40;;;10.35;;
84891;SDS011;75154;42.072;21.394;2024-02-15T01:30:31;14.38;;;9.60;;
84891;SDS011;75154;42.072;21.394;2024-02-15T01:32:57;15.50;;;9.95;;
84891;SDS011;75154;42.072;21.394;2024-02-15T01:35:24;17.95;;;9.73;;
84891;SDS011;75154;42.072;21.394;2024-02-15T01:37:50;14.27;;;9.75;;
84891;SDS011;75154;42.072;21.394;2024-02-15T01:40:17;14.65;;;9.10;;
84891;SDS011;75154;42.072;21.394;2024-02-15T01:42:46;15.90;;;9.13;;
84891;SDS011;75154;42.072;21.394;2024-02-15T01:45:14;13.13;;;9.05;;
84891;SDS011;75154;42.072;21.394;2024-02-15T01:47:40;13.73;;;9.65;;
84891;SDS011;75154;42.072;21.394;2024-02-15T01:50:08;13.95;;;9.25;;
84891;SDS011;75154;42.072;21.394;2024-02-15T01:52:35;15.00;;;9.52;;
84891;SDS011;75154;42.072;21.394;2024-02-15T01:55:01;14.57;;;8.50;;
84891;SDS011;75154;42.072;21.394;2024-02-15T01:57:33;13.52;;;9.13;;
84891;SDS011;75154;42.072;21.394;2024-02-15T02:00:00;14.85;;;9.50;;
84891;SDS011;75154;42.072;21.394;2024-02-15T02:02:26;19.08;;;9.63;;
84891;SDS011;75154;42.072;21.394;2024-02-15T02:04:54;14.45;;;8.65;;
84891;SDS011;75154;42.072;21.394;2024-02-15T02:07:20;14.65;;;9.25;;
84891;SDS011;75154;42.072;21.394;2024-02-15T02:09:46;13.15;;;9.05;;
84891;SDS011;75154;42.072;21.394;2024-02-15T02:12:14;13.98;;;8.95;;
84891;SDS011;75154;42.072;21.394;2024-02-15T02:14:40;15.05;;;9.45;;
84891;SDS011;75154;42.072;21.394;2024-02-15T02:17:15;17.00;;;10.13;;
84891;SDS011;75154;42.072;21.394;2024-02-15T02:19:41;14.07;;;8.82;;
84891;SDS011;75154;42.072;21.394;2024-02-15T02:22:09;16.08;;;9.43;;
84891;SDS011;75154;42.072;21.394;2024-02-15T02:27:20;16.45;;;10.02;;
84891;SDS011;75154;42.072;21.394;2024-02-15T02:29:47;12.77;;;8.80;;
84891;SDS011;75154;42.072;21.394;2024-02-15T02:32:13;16.58;;;9.43;;
84891;SDS011;75154;42.072;21.394;2024-02-15T02:34:39;14.25;;;9.25;;
84891;SDS011;75154;42.072;21.394;2024-02-15T02:37:09;13.75;;;9.40;;
84891;SDS011;75154;42.072;21.394;2024-02-15T02:39:37;16.48;;;10.07;;
84891;SDS011;75154;42.072;21.394;2024-02-15T02:42:03;16.52;;;10.02;;
84891;SDS011;75154;42.072;21.394;2024-02-15T02:44:29;15.77;;;10.18;;
84891;SDS011;75154;42.072;21.394;2024-02-15T02:46:55;15.07;;;9.65;;
84891;SDS011;75154;42.072;21.394;2024-02-15T02:49:21;17.90;;;10.32;;
84891;SDS011;75154;42.072;21.394;2024-02-15T02:51:47;15.85;;;9.30;;
84891;SDS011;75154;42.072;21.394;2024-02-15T02:54:13;14.43;;;9.48;;
84891;SDS011;75154;42.072;21.394;2024-02-15T02:56:40;14.45;;;8.25;;
84891;SDS011;75154;42.072;21.394;2024-02-15T02:59:08;14.95;;;9.57;;
84891;SDS011;75154;42.072;21.394;2024-02-15T03:01:34;14.70;;;8.32;;
84891;SDS011;75154;42.072;21.394;2024-02-15T03:04:00;15.45;;;9.52;;
84891;SDS011;75154;42.072;21.394;2024-02-15T03:06:26;15.27;;;9.27;;
84891;SDS011;75154;42.072;21.394;2024-02-15T03:08:52;17.27;;;10.07;;
84891;SDS011;75154;42.072;21.394;2024-02-15T03:11:22;15.48;;;9.45;;
84891;SDS011;75154;42.072;21.394;2024-02-15T03:13:48;15.13;;;9.63;;
84891;SDS011;75154;42.072;21.394;2024-02-15T03:16:15;14.65;;;9.43;;
84891;SDS011;75154;42.072;21.394;2024-02-15T03:18:41;18.88;;;10.57;;
84891;SDS011;75154;42.072;21.394;2024-02-15T03:21:08;14.80;;;8.23;;
84891;SDS011;75154;42.072;21.394;2024-02-15T03:23:37;15.60;;;9.65;;
84891;SDS011;75154;42.072;21.394;2024-02-15T03:26:03;14.13;;;8.90;;
84891;SDS011;75154;42.072;21.394;2024-02-15T03:28:30;15.07;;;9.40;;
84891;SDS011;75154;42.072;21.394;2024-02-15T03:30:57;13.68;;;9.85;;
84891;SDS011;75154;42.072;21.394;2024-02-15T03:33:25;17.52;;;8.55;;
84891;SDS011;75154;42.072;21.394;2024-02-15T03:35:57;15.85;;;9.60;;
84891;SDS011;75154;42.072;21.394;2024-02-15T03:38:26;13.93;;;8.38;;
84891;SDS011;75154;42.072;21.394;2024-02-15T03:40:54;15.20;;;10.38;;
84891;SDS011;75154;42.072;21.394;2024-02-15T03:43:20;14.48;;;10.32;;
84891;SDS011;75154;42.072;21.394;2024-02-15T03:45:46;15.05;;;9.75;;
84891;SDS011;75154;42.072;21.394;2024-02-15T03:48:12;14.70;;;8.80;;
84891;SDS011;75154;42.072;21.394;2024-02-15T03:50:39;16.88;;;10.55;;
84891;SDS011;75154;42.072;21.394;2024-02-15T03:53:05;18.30;;;10.82;;
84891;SDS011;75154;42.072;21.394;2024-02-15T03:55:31;12.88;;;8.82;;
84891;SDS011;75154;42.072;21.394;2024-02-15T03:57:58;13.88;;;9.05;;
84891;SDS011;75154;42.072;21.394;2024-02-15T04:00:24;14.82;;;9.38;;
84891;SDS011;75154;42.072;21.394;2024-02-15T04:02:50;14.45;;;9.50;;
84891;SDS011;75154;42.072;21.394;2024-02-15T04:05:16;16.65;;;9.77;;
84891;SDS011;75154;42.072;21.394;2024-02-15T04:07:44;16.45;;;10.35;;
84891;SDS011;75154;42.072;21.394;2024-02-15T04:10:10;16.08;;;9.10;;
84891;SDS011;75154;42.072;21.394;2024-02-15T04:12:37;14.75;;;10.07;;
84891;SDS011;75154;42.072;21.394;2024-02-15T04:15:03;14.43;;;9.23;;
84891;SDS011;75154;42.072;21.394;2024-02-15T04:17:37;14.85;;;10.10;;
84891;SDS011;75154;42.072;21.394;2024-02-15T04:20:03;13.70;;;8.48;;
84891;SDS011;75154;42.072;21.394;2024-02-15T04:22:31;14.13;;;8.98;;
84891;SDS011;75154;42.072;21.394;2024-02-15T04:25:02;12.95;;;8.98;;
84891;SDS011;75154;42.072;21.394;2024-02-15T04:27:28;14.13;;;9.05;;
84891;SDS011;75154;42.072;21.394;2024-02-15T04:29:54;18.63;;;10.52;;
84891;SDS011;75154;42.072;21.394;2024-02-15T04:32:21;15.02;;;9.20;;
84891;SDS011;75154;42.072;21.394;2024-02-15T04:34:47;16.15;;;10.57;;
84891;SDS011;75154;42.072;21.394;2024-02-15T04:37:13;16.92;;;9.38;;
84891;SDS011;75154;42.072;21.394;2024-02-15T04:39:41;18.05;;;10.20;;
84891;SDS011;75154;42.072;21.394;2024-02-15T04:42:08;15.15;;;10.00;;
84891;SDS011;75154;42.072;21.394;2024-02-15T04:44:39;17.45;;;10.80;;
84891;SDS011;75154;42.072;21.394;2024-02-15T04:47:05;16.33;;;8.77;;
84891;SDS011;75154;42.072;21.394;2024-02-15T04:49:32;15.35;;;9.50;;
84891;SDS011;75154;42.072;21.394;2024-02-15T04:51:58;15.80;;;9.88;;
84891;SDS011;75154;42.072;21.394;2024-02-15T04:54:27;16.20;;;10.80;;
84891;SDS011;75154;42.072;21.394;2024-02-15T04:56:54;17.48;;;8.82;;
84891;SDS011;75154;42.072;21.394;2024-02-15T04:59:22;19.10;;;10.82;;
84891;SDS011;75154;42.072;21.394;2024-02-15T05:01:51;15.93;;;9.70;;
84891;SDS011;75154;42.072;21.394;2024-02-15T05:04:17;17.77;;;9.23;;
84891;SDS011;75154;42.072;21.394;2024-02-15T05:06:43;15.02;;;9.77;;
84891;SDS011;75154;42.072;21.394;2024-02-15T05:09:10;18.35;;;10.52;;
84891;SDS011;75154;42.072;21.394;2024-02-15T05:11:37;16.17;;;10.52;;
84891;SDS011;75154;42.072;21.394;2024-02-15T05:14:06;17.33;;;10.45;;
84891;SDS011;75154;42.072;21.394;2024-02-15T05:16:35;15.55;;;9.40;;
84891;SDS011;75154;42.072;21.394;2024-02-15T05:19:11;17.25;;;10.65;;
84891;SDS011;75154;42.072;21.394;2024-02-15T05:21:37;19.30;;;9.98;;
84891;SDS011;75154;42.072;21.394;2024-02-15T05:24:06;17.65;;;10.63;;
84891;SDS011;75154;42.072;21.394;2024-02-15T05:26:32;21.38;;;11.32;;
84891;SDS011;75154;42.072;21.394;2024-02-15T05:28:58;20.13;;;11.60;;
84891;SDS011;75154;42.072;21.394;2024-02-15T05:31:24;19.27;;;11.57;;
84891;SDS011;75154;42.072;21.394;2024-02-15T05:33:51;19.52;;;12.50;;
84891;SDS011;75154;42.072;21.394;2024-02-15T05:36:18;21.27;;;11.15;;
84891;SDS011;75154;42.072;21.394;2024-02-15T05:38:46;21.30;;;11.73;;
84891;SDS011;75154;42.072;21.394;2024-02-15T05:41:12;22.13;;;12.05;;
84891;SDS011;75154;42.072;21.394;2024-02-15T05:43:38;20.67;;;11.52;;
84891;SDS011;75154;42.072;21.394;2024-02-15T05:46:06;21.40;;;10.73;;
84891;SDS011;75154;42.072;21.394;2024-02-15T05:48:32;22.42;;;11.60;;
84891;SDS011;75154;42.072;21.394;2024-02-15T05:51:08;19.77;;;10.55;;
84891;SDS011;75154;42.072;21.394;2024-02-15T05:53:35;23.80;;;10.85;;
84891;SDS011;75154;42.072;21.394;2024-02-15T05:56:08;20.98;;;10.68;;
84891;SDS011;75154;42.072;21.394;2024-02-15T05:58:38;19.25;;;10.50;;
84891;SDS011;75154;42.072;21.394;2024-02-15T06:01:05;42.33;;;19.35;;
84891;SDS011;75154;42.072;21.394;2024-02-15T06:03:32;39.35;;;20.05;;
84891;SDS011;75154;42.072;21.394;2024-02-15T06:06:02;29.52;;;15.45;;
84891;SDS011;75154;42.072;21.394;2024-02-15T06:08:32;30.73;;;16.50;;
84891;SDS011;75154;42.072;21.394;2024-02-15T06:10:58;35.88;;;17.75;;
84891;SDS011;75154;42.072;21.394;2024-02-15T06:13:25;40.38;;;21.88;;
84891;SDS011;75154;42.072;21.394;2024-02-15T06:15:52;37.55;;;20.15;;
84891;SDS011;75154;42.072;21.394;2024-02-15T06:18:22;35.03;;;20.60;;
84891;SDS011;75154;42.072;21.394;2024-02-15T06:20:54;39.08;;;19.70;;
84891;SDS011;75154;42.072;21.394;2024-02-15T06:23:22;34.65;;;19.08;;
84891;SDS011;75154;42.072;21.394;2024-02-15T06:25:50;31.33;;;17.17;;
84891;SDS011;75154;42.072;21.394;2024-02-15T06:28:18;32.78;;;18.70;;
84891;SDS011;75154;42.072;21.394;2024-02-15T06:31:02;33.08;;;16.80;;
84891;SDS011;75154;42.072;21.394;2024-02-15T06:33:47;32.30;;;18.00;;
84891;SDS011;75154;42.072;21.394;2024-02-15T06:36:32;27.55;;;16.13;;
84891;SDS011;75154;42.072;21.394;2024-02-15T06:39:16;30.33;;;18.05;;
84891;SDS011;75154;42.072;21.394;2024-02-15T06:42:01;37.88;;;16.27;;
84891;SDS011;75154;42.072;21.394;2024-02-15T06:44:27;34.38;;;18.55;;
84891;SDS011;75154;42.072;21.394;2024-02-15T06:46:54;31.25;;;18.63;;
84891;SDS011;75154;42.072;21.394;2024-02-15T06:49:22;33.63;;;17.80;;
84891;SDS011;75154;42.072;21.394;2024-02-15T06:51:51;29.33;;;17.38;;
84891;SDS011;75154;42.072;21.394;2024-02-15T06:54:17;27.30;;;16.30;;
84891;SDS011;75154;42.072;21.394;2024-02-15T06:56:44;32.95;;;18.42;;
84891;SDS011;75154;42.072;21.394;2024-02-15T06:59:11;27.42;;;14.73;;
84891;SDS011;75154;42.072;21.394;2024-02-15T07:01:40;24.92;;;14.52;;
84891;SDS011;75154;42.072;21.394;2024-02-15T07:04:07;23.35;;;14.30;;
84891;SDS011;75154;42.072;21.394;2024-02-15T07:06:35;20.20;;;12.60;;
84891;SDS011;75154;42.072;21.394;2024-02-15T07:09:02;22.65;;;13.02;;
84891;SDS011;75154;42.072;21.394;2024-02-15T07:11:28;19.52;;;12.07;;
84891;SDS011;75154;42.072;21.394;2024-02-15T07:13:55;21.10;;;11.60;;
84891;SDS011;75154;42.072;21.394;2024-02-15T07:16:22;20.65;;;11.65;;
84891;SDS011;75154;42.072;21.394;2024-02-15T07:18:48;18.83;;;10.45;;
84891;SDS011;75154;42.072;21.394;2024-02-15T07:21:15;18.80;;;11.07;;
84891;SDS011;75154;42.072;21.394;2024-02-15T07:23:42;16.92;;;11.32;;
84891;SDS011;75154;42.072;21.394;2024-02-15T07:26:08;17.30;;;10.32;;
84891;SDS011;75154;42.072;21.394;2024-02-15T07:28:37;14.32;;;9.88;;
84891;SDS011;75154;42.072;21.394;2024-02-15T07:31:03;16.40;;;10.07;;
84891;SDS011;75154;42.072;21.394;2024-02-15T07:33:29;19.42;;;10.68;;
84891;SDS011;75154;42.072;21.394;2024-02-15T07:35:55;18.23;;;10.38;;
84891;SDS011;75154;42.072;21.394;2024-02-15T07:38:22;17.17;;;10.93;;
84891;SDS011;75154;42.072;21.394;2024-02-15T07:40:48;15.60;;;10.07;;
84891;SDS011;75154;42.072;21.394;2024-02-15T07:43:15;16.17;;;10.00;;
84891;SDS011;75154;42.072;21.394;2024-02-15T07:45:41;15.57;;;10.25;;
84891;SDS011;75154;42.072;21.394;2024-02-15T07:48:08;14.57;;;10.23;;
84891;SDS011;75154;42.072;21.394;2024-02-15T07:50:34;16.48;;;10.32;;
84891;SDS011;75154;42.072;21.394;2024-02-15T07:53:02;18.50;;;10.00;;
84891;SDS011;75154;42.072;21.394;2024-02-15T07:55:31;15.70;;;10.48;;
84891;SDS011;75154;42.072;21.394;2024-02-15T07:57:59;16.23;;;10.32;;
84891;SDS011;75154;42.072;21.394;2024-02-15T08:00:25;16.88;;;10.18;;
84891;SDS011;75154;42.072;21.394;2024-02-15T08:02:53;15.95;;;9.98;;
84891;SDS011;75154;42.072;21.394;2024-02-15T08:05:19;14.73;;;9.82;;
84891;SDS011;75154;42.072;21.394;2024-02-15T08:07:46;16.67;;;10.30;;
84891;SDS011;75154;42.072;21.394;2024-02-15T08:10:15;17.80;;;10.95;;
84891;SDS011;75154;42.072;21.394;2024-02-15T08:12:45;16.95;;;10.15;;
84891;SDS011;75154;42.072;21.394;2024-02-15T08:15:16;14.90;;;10.25;;
84891;SDS011;75154;42.072;21.394;2024-02-15T08:17:43;13.68;;;9.02;;
84891;SDS011;75154;42.072;21.394;2024-02-15T08:20:11;14.45;;;8.35;;
84891;SDS011;75154;42.072;21.394;2024-02-15T08:22:38;12.77;;;8.73;;
84891;SDS011;75154;42.072;21.394;2024-02-15T08:25:08;16.75;;;9.90;;
84891;SDS011;75154;42.072;21.394;2024-02-15T08:27:38;16.85;;;10.27;;
84891;SDS011;75154;42.072;21.394;2024-02-15T08:30:11;13.25;;;8.40;;
84891;SDS011;75154;42.072;21.394;2024-02-15T08:35:04;13.90;;;8.30;;
84891;SDS011;75154;42.072;21.394;2024-02-15T08:37:31;15.35;;;9.23;;
84891;SDS011;75154;42.072;21.394;2024-02-15T08:39:59;16.65;;;9.73;;
84891;SDS011;75154;42.072;21.394;2024-02-15T08:42:25;15.98;;;9.85;;
84891;SDS011;75154;42.072;21.394;2024-02-15T08:44:51;17.17;;;11.02;;
84891;SDS011;75154;42.072;21.394;2024-02-15T08:47:20;19.83;;;11.35;;
84891;SDS011;75154;42.072;21.394;2024-02-15T08:49:52;14.90;;;10.65;;
84891;SDS011;75154;42.072;21.394;2024-02-15T08:52:22;19.55;;;11.00;;
84891;SDS011;75154;42.072;21.394;2024-02-15T08:54:52;15.00;;;10.70;;
84891;SDS011;75154;42.072;21.394;2024-02-15T08:57:22;15.60;;;9.88;;
84891;SDS011;75154;42.072;21.394;2024-02-15T08:59:48;17.00;;;10.48;;
84891;SDS011;75154;42.072;21.394;2024-02-15T09:02:16;14.18;;;9.75;;
84891;SDS011;75154;42.072;21.394;2024-02-15T09:04:43;19.15;;;9.38;;
84891;SDS011;75154;42.072;21.394;2024-02-15T09:07:09;14.63;;;9.52;;
84891;SDS011;75154;42.072;21.394;2024-02-15T09:09:35;14.23;;;8.82;;
84891;SDS011;75154;42.072;21.394;2024-02-15T09:12:05;16.52;;;8.43;;
84891;SDS011;75154;42.072;21.394;2024-02-15T09:14:34;11.77;;;8.02;;
84891;SDS011;75154;42.072;21.394;2024-02-15T09:17:02;13.90;;;8.27;;
84891;SDS011;75154;42.072;21.394;2024-02-15T09:19:34;9.88;;;7.20;;
84891;SDS011;75154;42.072;21.394;2024-02-15T09:22:03;15.95;;;8.02;;
84891;SDS011;75154;42.072;21.394;2024-02-15T09:24:32;11.75;;;7.88;;
84891;SDS011;75154;42.072;21.394;2024-02-15T09:27:01;13.32;;;8.35;;
84891;SDS011;75154;42.072;21.394;2024-02-15T09:29:30;11.10;;;6.90;;
84891;SDS011;75154;42.072;21.394;2024-02-15T09:31:59;11.80;;;7.63;;
84891;SDS011;75154;42.072;21.394;2024-02-15T09:34:28;8.95;;;6.97;;
84891;SDS011;75154;42.072;21.394;2024-02-15T09:36:54;12.10;;;7.85;;
84891;SDS011;75154;42.072;21.394;2024-02-15T09:39:21;10.43;;;7.05;;
84891;SDS011;75154;42.072;21.394;2024-02-15T09:41:48;11.50;;;7.85;;
84891;SDS011;75154;42.072;21.394;2024-02-15T09:47:24;9.82;;;6.70;;
84891;SDS011;75154;42.072;21.394;2024-02-15T09:49:51;10.80;;;7.82;;
84891;SDS011;75154;42.072;21.394;2024-02-15T09:52:17;12.60;;;7.55;;
84891;SDS011;75154;42.072;21.394;2024-02-15T09:54:43;10.35;;;6.63;;
84891;SDS011;75154;42.072;21.394;2024-02-15T09:57:10;11.27;;;7.88;;
84891;SDS011;75154;42.072;21.394;2024-02-15T09:59:36;11.25;;;7.03;;
84891;SDS011;75154;42.072;21.394;2024-02-15T10:02:03;10.15;;;7.40;;
84891;SDS011;75154;42.072;21.394;2024-02-15T10:04:29;11.05;;;7.45;;
84891;SDS011;75154;42.072;21.394;2024-02-15T10:06:55;14.73;;;6.75;;
84891;SDS011;75154;42.072;21.394;2024-02-15T10:09:25;11.27;;;7.05;;
84891;SDS011;75154;42.072;21.394;2024-02-15T10:12:02;9.90;;;7.05;;
84891;SDS011;75154;42.072;21.394;2024-02-15T10:14:29;10.25;;;6.18;;
84891;SDS011;75154;42.072;21.394;2024-02-15T10:16:56;9.50;;;6.00;;
84891;SDS011;75154;42.072;21.394;2024-02-15T10:19:22;9.95;;;6.68;;
84891;SDS011;75154;42.072;21.394;2024-02-15T10:21:52;10.10;;;7.05;;
84891;SDS011;75154;42.072;21.394;2024-02-15T10:29:35;10.57;;;6.28;;
84891;SDS011;75154;42.072;21.394;2024-02-15T10:32:01;9.40;;;6.63;;
84891;SDS011;75154;42.072;21.394;2024-02-15T10:34:27;9.13;;;6.72;;
84891;SDS011;75154;42.072;21.394;2024-02-15T10:37:12;11.65;;;6.75;;
84891;SDS011;75154;42.072;21.394;2024-02-15T10:39:41;12.95;;;6.57;;
84891;SDS011;75154;42.072;21.394;2024-02-15T10:42:07;9.98;;;7.00;;
84891;SDS011;75154;42.072;21.394;2024-02-15T10:44:37;9.55;;;6.70;;
84891;SDS011;75154;42.072;21.394;2024-02-15T10:47:05;12.15;;;6.63;;
84891;SDS011;75154;42.072;21.394;2024-02-15T10:49:33;11.90;;;7.70;;
84891;SDS011;75154;42.072;21.394;2024-02-15T10:52:00;13.00;;;7.93;;
84891;SDS011;75154;42.072;21.394;2024-02-15T10:54:42;12.65;;;7.18;;
84891;SDS011;75154;42.072;21.394;2024-02-15T10:57:09;10.13;;;6.10;;
84891;SDS011;75154;42.072;21.394;2024-02-15T10:59:36;13.68;;;6.20;;
84891;SDS011;75154;42.072;21.394;2024-02-15T11:02:08;9.60;;;6.07;;
84891;SDS011;75154;42.072;21.394;2024-02-15T11:04:38;13.85;;;6.75;;
84891;SDS011;75154;42.072;21.394;2024-02-15T11:07:06;11.35;;;6.25;;
84891;SDS011;75154;42.072;21.394;2024-02-15T11:09:32;15.70;;;7.00;;
84891;SDS011;75154;42.072;21.394;2024-02-15T11:11:58;14.32;;;6.60;;
84891;SDS011;75154;42.072;21.394;2024-02-15T11:17:03;9.68;;;6.70;;
84891;SDS011;75154;42.072;21.394;2024-02-15T11:21:58;9.18;;;5.80;;
84891;SDS011;75154;42.072;21.394;2024-02-15T11:24:28;9.60;;;5.45;;
84891;SDS011;75154;42.072;21.394;2024-02-15T11:26:59;10.00;;;6.47;;
84891;SDS011;75154;42.072;21.394;2024-02-15T11:30:11;8.48;;;5.65;;
84891;SDS011;75154;42.072;21.394;2024-02-15T11:40:18;10.77;;;6.30;;
84891;SDS011;75154;42.072;21.394;2024-02-15T11:42:45;12.82;;;6.05;;
84891;SDS011;75154;42.072;21.394;2024-02-15T11:45:12;9.40;;;6.35;;
84891;SDS011;75154;42.072;21.394;2024-02-15T11:47:39;9.95;;;6.20;;
84891;SDS011;75154;42.072;21.394;2024-02-15T11:50:10;8.65;;;5.50;;
84891;SDS011;75154;42.072;21.394;2024-02-15T11:52:39;11.02;;;5.47;;
84891;SDS011;75154;42.072;21.394;2024-02-15T11:55:06;13.18;;;6.63;;
84891;SDS011;75154;42.072;21.394;2024-02-15T11:57:35;7.57;;;5.50;;
84891;SDS011;75154;42.072;21.394;2024-02-15T12:00:18;10.13;;;6.20;;
84891;SDS011;75154;42.072;21.394;2024-02-15T12:03:03;8.77;;;5.82;;
84891;SDS011;75154;42.072;21.394;2024-02-15T12:05:49;9.85;;;6.22;;
84891;SDS011;75154;42.072;21.394;2024-02-15T12:08:34;8.70;;;5.50;;
84891;SDS011;75154;42.072;21.394;2024-02-15T12:11:19;9.20;;;6.55;;
84891;SDS011;75154;42.072;21.394;2024-02-15T12:14:03;10.68;;;6.18;;
84891;SDS011;75154;42.072;21.394;2024-02-15T12:16:58;8.00;;;5.47;;
84891;SDS011;75154;42.072;21.394;2024-02-15T12:19:42;8.10;;;5.55;;
84891;SDS011;75154;42.072;21.394;2024-02-15T12:22:08;10.95;;;6.10;;
84891;SDS011;75154;42.072;21.394;2024-02-15T12:24:35;9.13;;;6.25;;
84891;SDS011;75154;42.072;21.394;2024-02-15T12:27:01;11.05;;;6.00;;
84891;SDS011;75154;42.072;21.394;2024-02-15T12:29:31;8.80;;;5.47;;
84891;SDS011;75154;42.072;21.394;2024-02-15T12:31:58;7.55;;;4.90;;
84891;SDS011;75154;42.072;21.394;2024-02-15T12:34:24;9.48;;;5.38;;
84891;SDS011;75154;42.072;21.394;2024-02-15T12:36:50;13.73;;;6.68;;
84891;SDS011;75154;42.072;21.394;2024-02-15T12:39:24;9.90;;;5.85;;
84891;SDS011;75154;42.072;21.394;2024-02-15T12:41:50;10.68;;;5.60;;
84891;SDS011;75154;42.072;21.394;2024-02-15T12:44:16;13.32;;;6.65;;
84891;SDS011;75154;42.072;21.394;2024-02-15T12:47:00;9.45;;;6.35;;
84891;SDS011;75154;42.072;21.394;2024-02-15T12:49:28;10.13;;;6.40;;
84891;SDS011;75154;42.072;21.394;2024-02-15T12:52:32;8.63;;;5.82;;
84891;SDS011;75154;42.072;21.394;2024-02-15T12:54:41;15.68;;;6.65;;
84891;SDS011;75154;42.072;21.394;2024-02-15T12:57:07;11.07;;;6.20;;
84891;SDS011;75154;42.072;21.394;2024-02-15T12:59:40;8.65;;;5.30;;
84891;SDS011;75154;42.072;21.394;2024-02-15T13:02:07;9.20;;;6.07;;
84891;SDS011;75154;42.072;21.394;2024-02-15T13:04:34;9.77;;;5.40;;
84891;SDS011;75154;42.072;21.394;2024-02-15T13:07:02;9.02;;;5.97;;
84891;SDS011;75154;42.072;21.394;2024-02-15T13:09:28;8.73;;;5.00;;
84891;SDS011;75154;42.072;21.394;2024-02-15T13:11:54;11.45;;;5.75;;
84891;SDS011;75154;42.072;21.394;2024-02-15T13:14:20;7.65;;;5.00;;
84891;SDS011;75154;42.072;21.394;2024-02-15T13:16:46;12.13;;;5.90;;
84891;SDS011;75154;42.072;21.394;2024-02-15T13:19:13;7.78;;;5.82;;
84891;SDS011;75154;42.072;21.394;2024-02-15T13:21:39;9.82;;;5.22;;
84891;SDS011;75154;42.072;21.394;2024-02-15T13:24:05;11.82;;;5.50;;
84891;SDS011;75154;42.072;21.394;2024-02-15T13:26:31;11.77;;;5.72;;
84891;SDS011;75154;42.072;21.394;2024-02-15T13:28:59;12.57;;;6.10;;
84891;SDS011;75154;42.072;21.394;2024-02-15T13:31:25;8.98;;;5.95;;
84891;SDS011;75154;42.072;21.394;2024-02-15T13:33:52;9.52;;;5.78;;
84891;SDS011;75154;42.072;21.394;2024-02-15T13:36:18;8.75;;;5.50;;
84891;SDS011;75154;42.072;21.394;2024-02-15T13:38:45;11.88;;;5.72;;
84891;SDS011;75154;42.072;21.394;2024-02-15T13:41:12;14.25;;;6.03;;
84891;SDS011;75154;42.072;21.394;2024-02-15T13:43:38;11.43;;;4.78;;
84891;SDS011;75154;42.072;21.394;2024-02-15T13:46:06;7.93;;;4.70;;
84891;SDS011;75154;42.072;21.394;2024-02-15T13:48:32;12.20;;;5.32;;
84891;SDS011;75154;42.072;21.394;2024-02-15T13:50:58;11.77;;;5.30;;
84891;SDS011;75154;42.072;21.394;2024-02-15T13:53:24;14.27;;;4.82;;
84891;SDS011;75154;42.072;21.394;2024-02-15T13:55:50;8.98;;;4.85;;
84891;SDS011;75154;42.072;21.394;2024-02-15T13:58:20;8.55;;;4.50;;
84891;SDS011;75154;42.072;21.394;2024-02-15T14:00:47;7.95;;;4.90;;
84891;SDS011;75154;42.072;21.394;2024-02-15T14:03:14;7.53;;;4.43;;
84891;SDS011;75154;42.072;21.394;2024-02-15T14:05:40;8.32;;;5.20;;
84891;SDS011;75154;42.072;21.394;2024-02-15T14:08:07;6.13;;;4.30;;
84891;SDS011;75154;42.072;21.394;2024-02-15T14:10:34;10.75;;;5.15;;
84891;SDS011;75154;42.072;21.394;2024-02-15T14:13:01;9.85;;;4.35;;
84891;SDS011;75154;42.072;21.394;2024-02-15T14:15:29;9.57;;;4.03;;
84891;SDS011;75154;42.072;21.394;2024-02-15T14:17:55;7.85;;;4.15;;
84891;SDS011;75154;42.072;21.394;2024-02-15T14:20:22;6.53;;;4.72;;
84891;SDS011;75154;42.072;21.394;2024-02-15T14:22:49;8.90;;;4.72;;
84891;SDS011;75154;42.072;21.394;2024-02-15T14:25:24;6.95;;;4.05;;
84891;SDS011;75154;42.072;21.394;2024-02-15T14:27:50;8.90;;;4.18;;
84891;SDS011;75154;42.072;21.394;2024-02-15T14:30:18;9.27;;;3.90;;
84891;SDS011;75154;42.072;21.394;2024-02-15T14:33:03;7.50;;;4.13;;
84891;SDS011;75154;42.072;21.394;2024-02-15T14:35:32;5.90;;;3.88;;
84891;SDS011;75154;42.072;21.394;2024-02-15T14:38:03;9.65;;;4.28;;
84891;SDS011;75154;42.072;21.394;2024-02-15T14:40:36;8.90;;;4.60;;
84891;SDS011;75154;42.072;21.394;2024-02-15T14:43:03;6.78;;;4.10;;
84891;SDS011;75154;42.072;21.394;2024-02-15T14:45:30;9.25;;;4.63;;
84891;SDS011;75154;42.072;21.394;2024-02-15T14:47:57;6.85;;;4.32;;
84891;SDS011;75154;42.072;21.394;2024-02-15T14:50:23;11.18;;;4.10;;
84891;SDS011;75154;42.072;21.394;2024-02-15T14:52:50;9.43;;;3.80;;